createdAt,value
2023-03-30T00:01:34.101Z,93.80
2023-03-30T00:04:02.956Z,93.30
2023-03-30T00:06:30.795Z,92.86
2023-03-30T00:08:59.795Z,91.61
2023-03-30T00:11:34.400Z,92.28
2023-03-30T00:14:01.912Z,92.69
2023-03-30T00:16:29.631Z,92.19
2023-03-30T00:18:57.458Z,92.85
2023-03-30T00:21:25.872Z,93.59
2023-03-30T00:23:54.425Z,94.63
2023-03-30T00:26:22.455Z,94.21
2023-03-30T00:28:49.860Z,93.86
2023-03-30T00:31:17.409Z,93.70
2023-03-30T00:33:46.913Z,93.29
2023-03-30T00:36:15.891Z,92.97
2023-03-30T00:38:45.903Z,93.30
2023-03-30T00:41:13.689Z,94.88
2023-03-30T00:44:39.443Z,93.85
2023-03-30T00:47:08.241Z,94.39
2023-03-30T00:49:35.773Z,94.52
2023-03-30T00:52:05.761Z,95.50
2023-03-30T00:54:35.469Z,94.87
2023-03-30T00:57:03.964Z,94.44
2023-03-30T00:59:35.417Z,93.73
2023-03-30T01:02:05.414Z,93.14
2023-03-30T01:04:37.474Z,92.02
2023-03-30T01:07:07.581Z,91.12
2023-03-30T01:09:34.968Z,90.52
2023-03-30T01:12:02.568Z,91.72
2023-03-30T01:14:30.299Z,92.31
2023-03-30T01:17:13.584Z,91.66
2023-03-30T01:19:56.933Z,92.75
2023-03-30T01:22:41.539Z,92.47
2023-03-30T01:25:45.523Z,91.77
2023-03-30T01:28:19.702Z,91.63
2023-03-30T01:31:42.063Z,91.33
2023-03-30T01:34:40.975Z,93.36
2023-03-30T01:37:26.720Z,95.35
2023-03-30T01:40:13.270Z,95.09
2023-03-30T01:42:58.697Z,94.40
2023-03-30T01:45:47.077Z,93.70
2023-03-30T01:48:45.545Z,92.43
2023-03-30T01:51:21.595Z,94.32
2023-03-30T01:54:06.807Z,94.06
2023-03-30T01:56:46.746Z,93.13
2023-03-30T01:59:40.011Z,91.76
2023-03-30T02:02:11.514Z,93.82
2023-03-30T02:04:42.388Z,93.63
2023-03-30T02:07:24.634Z,93.90
2023-03-30T02:09:59.049Z,94.25
2023-03-30T02:12:30.212Z,93.10
2023-03-30T02:15:04.800Z,94.90
2023-03-30T02:17:35.828Z,95.20
2023-03-30T02:20:04.614Z,94.18
2023-03-30T02:22:34.774Z,94.25
2023-03-30T02:25:02.911Z,95.06
2023-03-30T02:27:32.020Z,95.94
2023-03-30T02:30:00.568Z,96.55
2023-03-30T02:32:37.258Z,95.30
2023-03-30T02:35:18.873Z,93.62
2023-03-30T02:38:24.041Z,95.31
2023-03-30T02:41:27.515Z,95.91
2023-03-30T02:44:09.420Z,95.92
2023-03-30T02:47:23.054Z,97.98
2023-03-30T02:50:00.154Z,97.03
2023-03-30T02:52:57.103Z,98.20
2023-03-30T02:55:42.145Z,98.09
2023-03-30T02:58:18.955Z,97.88
2023-03-30T03:01:00.972Z,97.26
2023-03-30T03:03:38.705Z,96.92
2023-03-30T03:06:09.505Z,96.58
2023-03-30T03:08:41.128Z,95.98
2023-03-30T03:11:09.626Z,95.13
2023-03-30T03:13:39.361Z,95.53
2023-03-30T03:16:11.164Z,94.53
2023-03-30T03:18:42.241Z,94.09
2023-03-30T03:21:11.663Z,93.87
2023-03-30T03:23:39.527Z,94.21
2023-03-30T03:26:07.621Z,93.21
2023-03-30T03:28:36.444Z,93.37
2023-03-30T03:31:04.065Z,95.78
2023-03-30T03:33:32.867Z,96.58
2023-03-30T03:36:01.086Z,94.83
2023-03-30T03:38:29.088Z,95.38
2023-03-30T03:40:58.322Z,95.58
2023-03-30T03:43:26.271Z,96.22
2023-03-30T03:45:55.429Z,95.04
2023-03-30T03:48:24.636Z,96.98
2023-03-30T03:50:58.153Z,96.04
2023-03-30T03:53:28.104Z,96.44
2023-03-30T03:55:55.892Z,94.66
2023-03-30T03:58:24.863Z,94.80
2023-03-30T04:00:57.471Z,95.51
2023-03-30T04:03:32.610Z,95.82
2023-03-30T04:06:01.193Z,96.35
2023-03-30T04:08:30.704Z,95.88
2023-03-30T04:11:09.305Z,95.59
2023-03-30T04:13:38.790Z,96.80
2023-03-30T04:16:07.514Z,95.91
2023-03-30T04:18:36.404Z,95.83
2023-03-30T04:21:07.630Z,95.55
2023-03-30T04:23:40.185Z,95.69
2023-03-30T04:26:08.130Z,95.74
2023-03-30T04:28:35.761Z,95.46
2023-03-30T04:31:06.729Z,95.33
2023-03-30T04:33:35.160Z,94.43
2023-03-30T04:36:02.533Z,95.12
2023-03-30T04:38:30.724Z,94.87
2023-03-30T04:41:01.976Z,94.18
2023-03-30T04:43:30.097Z,94.31
2023-03-30T04:45:57.698Z,94.99
2023-03-30T04:48:26.497Z,95.11
2023-03-30T04:50:54.258Z,93.60
2023-03-30T04:53:23.173Z,95.25
2023-03-30T04:55:53.316Z,94.31
2023-03-30T04:58:21.285Z,93.38
2023-03-30T05:00:52.334Z,92.86
2023-03-30T05:03:23.260Z,93.37
2023-03-30T05:05:51.378Z,93.37
2023-03-30T05:08:18.736Z,93.09
2023-03-30T05:10:50.426Z,93.31
2023-03-30T05:13:18.553Z,93.99
2023-03-30T05:15:52.661Z,93.05
2023-03-30T05:18:20.594Z,93.09
2023-03-30T05:20:48.638Z,92.23
2023-03-30T05:23:16.458Z,93.30
2023-03-30T05:25:49.097Z,92.60
2023-03-30T05:28:19.823Z,90.39
2023-03-30T05:30:53.937Z,91.86
2023-03-30T05:33:24.384Z,92.12
2023-03-30T05:35:52.125Z,91.96
2023-03-30T05:38:19.595Z,93.45
2023-03-30T05:40:51.942Z,92.93
2023-03-30T05:43:19.510Z,92.85
2023-03-30T05:45:46.953Z,92.75
2023-03-30T05:48:15.082Z,93.01
2023-03-30T05:50:43.069Z,92.81
2023-03-30T05:53:11.111Z,91.84
2023-03-30T05:55:38.602Z,91.25
2023-03-30T05:58:06.748Z,89.56
2023-03-30T06:00:37.390Z,90.06
2023-03-30T06:03:14.099Z,88.71
2023-03-30T06:05:43.883Z,88.54
2023-03-30T06:08:13.682Z,87.46
2023-03-30T06:10:41.785Z,87.36
2023-03-30T06:13:09.140Z,87.91
2023-03-30T06:15:37.037Z,86.59
2023-03-30T06:18:05.287Z,87.25
2023-03-30T06:20:33.851Z,86.63
2023-03-30T06:23:02.634Z,86.13
2023-03-30T06:25:31.025Z,85.71
2023-03-30T06:27:58.602Z,85.07
2023-03-30T06:30:26.838Z,85.37
2023-03-30T06:32:55.279Z,86.26
2023-03-30T06:35:23.311Z,86.01
2023-03-30T06:37:51.117Z,86.12
2023-03-30T06:40:19.280Z,86.21
2023-03-30T06:42:47.147Z,87.79
2023-03-30T06:45:14.918Z,87.74
2023-03-30T06:47:44.464Z,86.08
2023-03-30T06:50:12.036Z,87.20
2023-03-30T06:52:39.975Z,87.88
2023-03-30T06:55:09.524Z,86.53
2023-03-30T06:57:37.233Z,85.36
2023-03-30T07:00:15.386Z,84.02
2023-03-30T07:02:44.537Z,82.61
2023-03-30T07:05:13.508Z,84.33
2023-03-30T07:07:41.980Z,83.89
2023-03-30T07:10:12.672Z,83.25
2023-03-30T07:12:41.519Z,82.72
2023-03-30T07:15:10.263Z,82.99
2023-03-30T07:17:38.243Z,83.66
2023-03-30T07:20:08.562Z,83.64
2023-03-30T07:22:36.437Z,83.91
2023-03-30T07:25:04.778Z,82.91
2023-03-30T07:27:37.165Z,83.24
2023-03-30T07:30:20.596Z,82.73
2023-03-30T07:32:54.421Z,82.90
2023-03-30T07:35:23.664Z,81.60
2023-03-30T07:37:51.705Z,80.81
2023-03-30T07:40:21.508Z,80.38
2023-03-30T07:42:50.721Z,80.18
2023-03-30T07:45:20.307Z,78.76
2023-03-30T07:47:47.784Z,78.67
2023-03-30T07:50:15.300Z,76.77
2023-03-30T07:52:43.211Z,77.64
2023-03-30T07:55:11.147Z,77.33
2023-03-30T07:57:42.373Z,77.58
2023-03-30T08:00:10.781Z,77.32
2023-03-30T08:02:39.083Z,77.73
2023-03-30T08:05:09.780Z,77.22
2023-03-30T08:07:37.346Z,76.24
2023-03-30T08:10:05.496Z,75.31
2023-03-30T08:12:38.591Z,75.34
2023-03-30T08:15:07.437Z,74.06
2023-03-30T08:17:35.085Z,74.23
2023-03-30T08:20:09.308Z,72.72
2023-03-30T08:22:39.555Z,71.47
2023-03-30T08:25:07.160Z,71.50
2023-03-30T08:27:36.318Z,71.50
2023-03-30T08:30:04.779Z,71.75
2023-03-30T08:32:34.254Z,71.81
2023-03-30T08:35:03.118Z,71.28
2023-03-30T08:37:30.721Z,73.79
2023-03-30T08:39:58.087Z,73.29
2023-03-30T08:42:39.580Z,74.82
2023-03-30T08:45:12.433Z,74.85
2023-03-30T08:47:46.225Z,74.70
2023-03-30T08:50:26.132Z,74.48
2023-03-30T08:52:54.463Z,74.72
2023-03-30T08:55:28.086Z,72.56
2023-03-30T08:58:05.699Z,72.72
2023-03-30T09:00:42.242Z,72.23
2023-03-30T09:03:38.851Z,72.89
2023-03-30T09:06:12.287Z,74.09
2023-03-30T09:08:40.896Z,72.70
2023-03-30T09:11:17.209Z,72.63
2023-03-30T09:13:46.488Z,74.23
2023-03-30T09:16:28.879Z,72.67
2023-03-30T09:19:01.249Z,72.18
2023-03-30T09:21:32.112Z,73.34
2023-03-30T09:24:02.409Z,73.55
2023-03-30T09:26:49.104Z,72.55
2023-03-30T09:29:24.043Z,72.76
2023-03-30T09:32:10.126Z,72.13
2023-03-30T09:34:59.830Z,71.36
2023-03-30T09:37:28.017Z,71.47
2023-03-30T09:39:59.109Z,70.94
2023-03-30T09:42:51.567Z,70.84
2023-03-30T09:45:30.174Z,70.06
2023-03-30T09:48:08.688Z,71.00
2023-03-30T09:50:43.310Z,70.32
2023-03-30T09:53:25.752Z,70.53
2023-03-30T09:56:00.464Z,69.90
2023-03-30T09:58:33.634Z,71.20
2023-03-30T10:01:07.143Z,70.66
2023-03-30T10:03:37.372Z,69.60
2023-03-30T10:06:09.391Z,70.01
2023-03-30T10:08:43.344Z,68.21
2023-03-30T10:11:13.645Z,67.43
2023-03-30T10:13:44.339Z,68.54
2023-03-30T10:16:27.361Z,69.06
2023-03-30T10:19:09.670Z,68.92
2023-03-30T10:21:39.840Z,68.46
2023-03-30T10:24:23.100Z,67.82
2023-03-30T10:26:53.363Z,68.77
2023-03-30T10:29:23.545Z,68.83
2023-03-30T10:32:02.225Z,67.54
2023-03-30T10:34:42.807Z,67.67
2023-03-30T10:37:32.904Z,66.79
2023-03-30T10:40:05.548Z,67.13
2023-03-30T10:42:33.788Z,67.13
2023-03-30T10:45:06.209Z,66.85
2023-03-30T10:48:01.529Z,66.87
2023-03-30T10:50:49.702Z,66.26
2023-03-30T10:53:27.029Z,65.62
2023-03-30T10:56:03.674Z,65.65
2023-03-30T10:59:07.431Z,65.27
2023-03-30T11:01:52.215Z,67.01
2023-03-30T11:04:49.026Z,66.42
2023-03-30T11:07:33.746Z,66.86
2023-03-30T11:10:11.991Z,67.37
2023-03-30T11:12:48.072Z,67.08
2023-03-30T11:15:31.473Z,67.20
2023-03-30T11:18:20.485Z,68.03
2023-03-30T11:21:01.697Z,68.19
2023-03-30T11:23:41.573Z,67.66
2023-03-30T11:26:12.829Z,69.34
2023-03-30T11:29:24.467Z,69.58
2023-03-30T11:32:16.200Z,70.06
2023-03-30T11:35:04.457Z,69.69
2023-03-30T11:37:59.844Z,69.90
2023-03-30T11:40:32.547Z,69.56
2023-03-30T11:43:01.719Z,70.14
2023-03-30T11:45:39.597Z,70.65
2023-03-30T11:48:36.626Z,70.94
2023-03-30T11:51:28.424Z,71.07
2023-03-30T11:54:04.890Z,71.20
2023-03-30T11:57:30.494Z,71.77
2023-03-30T12:00:09.942Z,71.80
2023-03-30T12:03:22.022Z,71.01
2023-03-30T12:05:56.364Z,73.34
2023-03-30T12:08:28.190Z,71.98
2023-03-30T12:11:20.066Z,71.15
2023-03-30T12:13:52.565Z,71.35
2023-03-30T12:16:47.000Z,71.94
2023-03-30T12:19:22.377Z,72.40
2023-03-30T12:22:03.827Z,72.56
2023-03-30T12:24:41.278Z,72.11
2023-03-30T12:27:11.894Z,72.35
2023-03-30T12:32:28.749Z,74.12
2023-03-30T12:34:58.267Z,74.80
2023-03-30T12:37:35.085Z,74.14
2023-03-30T12:40:33.657Z,74.64
2023-03-30T12:43:40.170Z,75.29
2023-03-30T12:46:36.102Z,76.20
2023-03-30T12:49:26.107Z,76.28
2023-03-30T12:52:14.326Z,76.36
2023-03-30T12:55:21.327Z,76.43
2023-03-30T12:58:04.599Z,76.23
2023-03-30T13:00:51.718Z,76.72
2023-03-30T13:03:33.044Z,77.26
2023-03-30T13:06:02.860Z,77.89
2023-03-30T13:08:41.214Z,77.81
2023-03-30T13:11:21.194Z,76.84
2023-03-30T13:13:54.000Z,77.27
2023-03-30T13:16:51.643Z,76.07
2023-03-30T13:19:33.390Z,76.59
2023-03-30T13:22:23.834Z,77.25
2023-03-30T13:24:59.416Z,77.68
2023-03-30T13:27:36.620Z,77.14
2023-03-30T13:30:13.092Z,77.53
2023-03-30T13:33:12.594Z,77.03
2023-03-30T13:35:46.282Z,76.71
2023-03-30T13:38:28.799Z,76.18
2023-03-30T13:41:15.604Z,76.23
2023-03-30T13:43:53.107Z,75.38
2023-03-30T13:46:26.352Z,75.26
2023-03-30T13:49:19.171Z,75.47
2023-03-30T13:51:48.011Z,75.86
2023-03-30T13:54:21.768Z,75.47
2023-03-30T13:56:56.920Z,75.36
2023-03-30T13:59:29.431Z,75.52
2023-03-30T14:01:59.289Z,74.78
2023-03-30T14:04:35.089Z,74.97
2023-03-30T14:07:24.289Z,75.78
2023-03-30T14:10:13.482Z,75.08
2023-03-30T14:12:42.834Z,75.05
2023-03-30T14:15:37.932Z,74.05
2023-03-30T14:18:13.782Z,74.05
2023-03-30T14:20:58.406Z,73.42
2023-03-30T14:23:35.372Z,73.47
2023-03-30T14:26:12.101Z,74.67
2023-03-30T14:28:42.608Z,74.29
2023-03-30T14:31:17.651Z,73.45
2023-03-30T14:33:46.226Z,74.35
2023-03-30T14:36:20.938Z,74.27
2023-03-30T14:38:53.906Z,74.19
2023-03-30T14:41:24.786Z,74.99
2023-03-30T14:44:01.445Z,75.26
2023-03-30T14:46:36.605Z,74.54
2023-03-30T14:49:05.524Z,73.70
2023-03-30T14:51:40.535Z,74.35
2023-03-30T14:54:15.789Z,73.93
2023-03-30T14:56:46.678Z,74.61
2023-03-30T14:59:18.310Z,74.83
2023-03-30T15:01:46.339Z,75.42
2023-03-30T15:04:16.757Z,75.07
2023-03-30T15:06:47.465Z,74.47
2023-03-30T15:09:18.606Z,73.84
2023-03-30T15:11:51.728Z,73.88
2023-03-30T15:14:22.427Z,73.27
2023-03-30T15:16:53.884Z,73.22
2023-03-30T15:19:37.885Z,74.15
2023-03-30T15:22:16.143Z,73.22
2023-03-30T15:24:43.775Z,73.44
2023-03-30T15:27:16.359Z,73.80
2023-03-30T15:29:44.994Z,73.88
2023-03-30T15:32:26.097Z,73.74
2023-03-30T15:35:15.206Z,74.61
2023-03-30T15:38:11.919Z,74.39
2023-03-30T15:40:44.776Z,74.05
2023-03-30T15:43:21.198Z,74.45
2023-03-30T15:46:06.419Z,75.55
2023-03-30T15:48:50.822Z,75.73
2023-03-30T15:51:24.944Z,76.26
2023-03-30T15:54:24.056Z,75.47
2023-03-30T15:57:00.690Z,75.55
2023-03-30T15:59:33.954Z,76.04
2023-03-30T16:02:04.403Z,76.37
2023-03-30T16:04:32.855Z,75.29
2023-03-30T16:07:00.204Z,75.74
2023-03-30T16:09:27.662Z,76.03
2023-03-30T16:11:55.342Z,76.82
2023-03-30T16:14:23.180Z,76.98
2023-03-30T16:16:51.361Z,76.07
2023-03-30T16:19:20.383Z,76.53
2023-03-30T16:21:47.814Z,76.48
2023-03-30T16:24:15.552Z,76.50
2023-03-30T16:26:43.818Z,76.48
2023-03-30T16:29:21.938Z,76.22
2023-03-30T16:31:51.200Z,76.51
2023-03-30T16:34:19.770Z,76.92
2023-03-30T16:36:50.159Z,77.34
2023-03-30T16:39:19.178Z,77.60
2023-03-30T16:41:51.764Z,77.88
2023-03-30T16:44:22.426Z,78.02
2023-03-30T16:46:50.717Z,76.62
2023-03-30T16:49:24.903Z,76.03
2023-03-30T16:51:55.393Z,75.01
2023-03-30T16:54:32.025Z,75.23
2023-03-30T16:57:02.007Z,75.18
2023-03-30T16:59:34.719Z,74.88
2023-03-30T17:02:03.262Z,74.83
2023-03-30T17:04:31.020Z,75.28
2023-03-30T17:07:00.651Z,75.51
2023-03-30T17:09:28.337Z,76.86
2023-03-30T17:11:55.863Z,77.72
2023-03-30T17:14:24.444Z,78.26
2023-03-30T17:16:51.761Z,78.18
2023-03-30T17:19:20.772Z,79.05
2023-03-30T17:21:48.264Z,79.01
2023-03-30T17:24:17.034Z,78.71
2023-03-30T17:26:46.308Z,79.01
2023-03-30T17:29:14.074Z,78.86
2023-03-30T17:31:46.053Z,79.61
2023-03-30T17:34:14.890Z,78.38
2023-03-30T17:36:42.818Z,78.33
2023-03-30T17:39:15.377Z,77.90
2023-03-30T17:41:42.954Z,77.50
2023-03-30T17:44:10.479Z,78.97
2023-03-30T17:46:39.298Z,79.06
2023-03-30T17:49:15.226Z,79.19
2023-03-30T17:51:42.731Z,81.25
2023-03-30T17:54:10.406Z,81.69
2023-03-30T17:56:42.442Z,81.67
2023-03-30T17:59:13.597Z,80.91
2023-03-30T18:01:41.307Z,82.54
2023-03-30T18:04:09.412Z,83.13
2023-03-30T18:06:36.967Z,83.22
2023-03-30T18:09:04.440Z,84.15
2023-03-30T18:11:31.806Z,84.89
2023-03-30T18:13:59.440Z,85.00
2023-03-30T18:16:27.214Z,84.23
2023-03-30T18:18:56.224Z,83.57
2023-03-30T18:21:24.582Z,82.80
2023-03-30T18:23:52.148Z,82.90
2023-03-30T18:26:19.616Z,84.22
2023-03-30T18:28:46.982Z,82.95
2023-03-30T18:31:15.666Z,84.48
2023-03-30T18:33:43.246Z,84.00
2023-03-30T18:36:13.286Z,83.80
2023-03-30T18:38:42.277Z,84.01
2023-03-30T18:41:13.321Z,84.44
2023-03-30T18:43:41.289Z,83.73
2023-03-30T18:46:11.493Z,83.72
2023-03-30T18:48:39.296Z,84.29
2023-03-30T18:51:07.083Z,84.61
2023-03-30T18:53:36.814Z,83.95
2023-03-30T18:56:04.535Z,84.62
2023-03-30T18:58:33.841Z,84.94
2023-03-30T19:01:06.922Z,85.00
2023-03-30T19:03:35.457Z,84.18
2023-03-30T19:06:03.209Z,84.44
2023-03-30T19:08:35.872Z,84.72
2023-03-30T19:11:03.479Z,84.55
2023-03-30T19:13:31.048Z,84.59
2023-03-30T19:16:00.041Z,83.75
2023-03-30T19:18:27.488Z,83.89
2023-03-30T19:20:55.622Z,83.49
2023-03-30T19:23:23.590Z,84.06
2023-03-30T19:25:51.620Z,83.96
2023-03-30T19:28:23.632Z,82.62
2023-03-30T19:30:51.256Z,83.01
2023-03-30T19:33:20.887Z,82.67
2023-03-30T19:35:48.756Z,81.62
2023-03-30T19:38:16.448Z,81.93
2023-03-30T19:40:44.099Z,82.03
2023-03-30T19:43:11.811Z,81.13
2023-03-30T19:45:40.115Z,81.19
2023-03-30T19:48:08.398Z,80.73
2023-03-30T19:50:38.514Z,80.29
2023-03-30T19:53:09.545Z,80.18
2023-03-30T19:55:37.950Z,81.06
2023-03-30T19:58:05.766Z,79.90
2023-03-30T20:00:34.901Z,80.08
2023-03-30T20:03:12.323Z,79.76
2023-03-30T20:05:40.022Z,79.25
2023-03-30T20:08:17.218Z,80.79
2023-03-30T20:10:54.086Z,80.61
2023-03-30T20:13:24.088Z,80.45
2023-03-30T20:15:56.268Z,79.87
2023-03-30T20:18:24.017Z,79.61
2023-03-30T20:20:51.630Z,80.87
2023-03-30T20:23:19.028Z,81.37
2023-03-30T20:25:49.588Z,82.87
2023-03-30T20:28:21.644Z,81.47
2023-03-30T20:30:49.442Z,81.32
2023-03-30T20:33:18.827Z,80.52
2023-03-30T20:35:46.494Z,80.20
2023-03-30T20:38:13.876Z,81.89
2023-03-30T20:40:42.596Z,80.60
2023-03-30T20:43:10.760Z,82.07
2023-03-30T20:45:46.437Z,83.08
2023-03-30T20:48:26.528Z,82.11
2023-03-30T20:50:55.359Z,82.38
2023-03-30T20:53:23.854Z,81.63
2023-03-30T20:55:52.198Z,82.05
2023-03-30T20:58:22.642Z,80.96
2023-03-30T21:00:58.121Z,81.72
2023-03-30T21:03:31.408Z,81.18
2023-03-30T21:06:01.479Z,80.54
2023-03-30T21:08:31.500Z,80.19
2023-03-30T21:11:00.770Z,79.59
2023-03-30T21:13:28.530Z,78.85
2023-03-30T21:16:01.173Z,79.07
2023-03-30T21:18:29.928Z,78.84
2023-03-30T21:20:57.977Z,79.23
2023-03-30T21:23:29.234Z,78.60
2023-03-30T21:25:59.441Z,76.52
2023-03-30T21:28:32.101Z,77.75
2023-03-30T21:31:01.083Z,77.74
2023-03-30T21:33:29.789Z,77.76
2023-03-30T21:35:59.368Z,77.88
2023-03-30T21:38:29.063Z,77.23
2023-03-30T21:40:57.291Z,76.80
2023-03-30T21:43:26.959Z,77.87
2023-03-30T21:45:57.347Z,76.91
2023-03-30T21:48:26.728Z,76.91
2023-03-30T21:51:02.553Z,77.65
2023-03-30T21:53:32.551Z,77.02
2023-03-30T21:56:00.726Z,77.35
2023-03-30T21:58:29.076Z,77.87
2023-03-30T22:01:08.991Z,78.19
2023-03-30T22:03:41.946Z,78.81
2023-03-30T22:06:11.400Z,79.05
2023-03-30T22:08:39.751Z,78.81
2023-03-30T22:11:16.733Z,77.98
2023-03-30T22:13:47.505Z,78.16
2023-03-30T22:16:22.467Z,78.96
2023-03-30T22:18:56.463Z,78.68
2023-03-30T22:21:27.306Z,79.35
2023-03-30T22:23:55.181Z,80.23
2023-03-30T22:26:23.037Z,80.14
2023-03-30T22:28:50.905Z,78.79
2023-03-30T22:31:24.202Z,79.06
2023-03-30T22:33:53.480Z,79.49
2023-03-30T22:36:26.834Z,79.35
2023-03-30T22:39:04.255Z,79.88
2023-03-30T22:41:31.815Z,80.41
2023-03-30T22:44:00.145Z,79.80
2023-03-30T22:46:28.367Z,79.66
2023-03-30T22:48:56.244Z,79.15
2023-03-30T22:51:28.529Z,78.59
2023-03-30T22:54:00.737Z,78.83
2023-03-30T22:56:32.073Z,79.56
2023-03-30T22:59:00.994Z,79.06
2023-03-30T23:01:32.713Z,79.71
2023-03-30T23:04:01.867Z,78.65
2023-03-30T23:06:29.580Z,79.03
2023-03-30T23:08:57.537Z,78.93
2023-03-30T23:11:29.235Z,79.00
2023-03-30T23:13:56.702Z,79.52
2023-03-30T23:16:24.382Z,79.69
2023-03-30T23:18:52.008Z,79.25
2023-03-30T23:21:22.406Z,79.26
2023-03-30T23:23:50.012Z,78.85
2023-03-30T23:26:17.684Z,78.13
2023-03-30T23:28:45.748Z,78.56
2023-03-30T23:31:15.649Z,78.63
2023-03-30T23:33:43.814Z,79.09
2023-03-30T23:36:19.486Z,80.01
2023-03-30T23:38:47.398Z,78.74
2023-03-30T23:41:19.746Z,80.19
2023-03-30T23:43:49.252Z,81.48
2023-03-30T23:46:44.815Z,80.87
2023-03-30T23:49:12.396Z,80.73
2023-03-30T23:51:40.555Z,81.09
2023-03-30T23:54:07.977Z,80.48
2023-03-30T23:56:37.867Z,81.01
2023-03-30T23:59:05.751Z,81.26
